Time;durP1;ratioP1;P1;durP2;ratioP2;P2;SDS_P1;SDS_P2;PMS_P1;PMS_P2;Temp;Humidity;BMP_temperature;BMP_pressure;BME280_temperature;BME280_humidity;BME280_pressure;Samples;Min_cycle;Max_cycle;Signal;HPM_P1;HPM_P2
2022/12/20 00:00:41;;;;;;;26.80;20.00;;;5.60;57.10;;;;;;20949;6730;118289;-74
2022/12/20 00:03:17;;;;;;;22.07;17.97;;;5.20;58.00;;;;;;20930;6730;121117;-73
2022/12/20 00:05:54;;;;;;;21.37;16.87;;;4.90;58.70;;;;;;20758;6730;117409;-73
2022/12/20 00:08:30;;;;;;;23.03;20.67;;;4.70;59.30;;;;;;20750;6724;306137;-74
2022/12/20 00:11:05;;;;;;;23.47;21.03;;;4.90;60.00;;;;;;20746;6719;276346;-74
2022/12/20 00:13:41;;;;;;;21.73;19.37;;;5.20;60.00;;;;;;20759;6719;308763;-74
2022/12/20 00:16:18;;;;;;;17.97;16.03;;;5.50;59.60;;;;;;20956;6724;117027;-74
2022/12/20 00:18:54;;;;;;;21.42;19.23;;;5.50;59.30;;;;;;20727;6724;276638;-74
2022/12/20 00:21:30;;;;;;;22.57;20.37;;;5.70;59.10;;;;;;20694;6739;289430;-74
2022/12/20 00:24:08;;;;;;;22.50;20.20;;;5.70;59.00;;;;;;20666;6743;309144;-74
2022/12/20 00:26:42;;;;;;;19.97;17.90;;;5.70;58.20;;;;;;20911;6739;117341;-74
2022/12/20 00:29:17;;;;;;;19.20;17.20;;;5.70;58.20;;;;;;20926;6723;118012;-74
2022/12/20 00:31:56;;;;;;;19.73;17.07;;;5.40;59.00;;;;;;20917;6739;118874;-74
2022/12/20 00:34:29;;;;;;;23.95;21.52;;;5.10;59.80;;;;;;20677;6724;292578;-74
2022/12/20 00:37:04;;;;;;;27.75;24.15;;;5.20;60.10;;;;;;20753;6729;335635;-74
2022/12/20 00:39:40;;;;;;;24.47;19.53;;;5.50;59.50;;;;;;20991;6714;116912;-74
2022/12/20 00:42:15;;;;;;;25.07;22.47;;;5.40;59.80;;;;;;20727;6724;289878;-74
2022/12/20 00:44:51;;;;;;;25.10;22.60;;;5.40;59.40;;;;;;20665;6720;332930;-75
2022/12/20 00:47:27;;;;;;;18.57;16.53;;;5.60;59.10;;;;;;20974;6720;117164;-74
2022/12/20 00:50:02;;;;;;;22.20;19.90;;;5.50;59.00;;;;;;20752;6720;339343;-74
2022/12/20 00:52:38;;;;;;;19.10;16.60;;;5.50;59.50;;;;;;20955;6729;117153;-74
2022/12/20 00:55:14;;;;;;;22.63;20.43;;;5.40;60.00;;;;;;20649;6714;308259;-73
2022/12/20 00:57:50;;;;;;;22.48;20.35;;;5.40;60.00;;;;;;20685;6742;306695;-74
2022/12/20 01:00:25;;;;;;;20.07;17.93;;;5.70;59.60;;;;;;21026;6716;117126;-74
2022/12/20 01:03:01;;;;;;;17.27;15.47;;;5.60;59.50;;;;;;20925;6730;118080;-74
2022/12/20 01:05:36;;;;;;;19.33;15.37;;;5.30;60.20;;;;;;20825;6713;117229;-74
2022/12/20 01:08:14;;;;;;;16.20;13.97;;;5.10;61.00;;;;;;20976;6713;117086;-75
2022/12/20 01:11:06;;;;;;;18.95;17.15;;;4.90;62.00;;;;;;20781;6713;278965;-74
2022/12/20 01:13:42;;;;;;;16.00;14.30;;;5.10;61.90;;;;;;20983;6714;119037;-75
2022/12/20 01:16:18;;;;;;;16.47;14.10;;;5.00;61.70;;;;;;20996;6713;117749;-75
2022/12/20 01:18:54;;;;;;;16.10;14.43;;;5.00;61.70;;;;;;20932;6728;118365;-75
2022/12/20 01:21:29;;;;;;;14.00;12.53;;;4.90;62.00;;;;;;20958;6724;117860;-75
2022/12/20 01:24:05;;;;;;;15.67;13.90;;;4.70;62.20;;;;;;20896;6734;122254;-75
2022/12/20 01:26:40;;;;;;;16.57;14.10;;;4.60;62.50;;;;;;20900;6743;117355;-75
2022/12/20 01:29:17;;;;;;;19.97;18.00;;;4.80;63.10;;;;;;20757;6714;309408;-75
2022/12/20 01:31:53;;;;;;;19.58;17.58;;;4.70;63.00;;;;;;20782;6714;308389;-75
2022/12/20 01:34:29;;;;;;;15.57;13.93;;;5.30;61.70;;;;;;20894;6723;117668;-75
2022/12/20 01:37:04;;;;;;;17.75;16.05;;;5.20;61.60;;;;;;20716;6729;309497;-74
2022/12/20 01:39:40;;;;;;;18.23;16.42;;;5.40;61.60;;;;;;20745;6723;306311;-74
2022/12/20 01:42:15;;;;;;;17.75;16.15;;;5.70;60.80;;;;;;20726;6729;306670;-75
2022/12/20 01:44:51;;;;;;;14.90;12.63;;;6.00;59.90;;;;;;20854;6724;118009;-75
2022/12/20 01:47:27;;;;;;;12.90;11.70;;;5.90;59.70;;;;;;20973;6721;118621;-74
2022/12/20 01:50:03;;;;;;;14.03;12.47;;;5.60;60.30;;;;;;20972;6721;117275;-74
2022/12/20 01:52:39;;;;;;;18.03;16.23;;;5.40;60.90;;;;;;20750;6721;305634;-75
2022/12/20 01:55:21;;;;;;;16.60;14.07;;;5.40;60.90;;;;;;20852;6721;119470;-74
2022/12/20 01:57:57;;;;;;;17.70;15.93;;;5.40;60.70;;;;;;20758;6770;334618;-74
2022/12/20 02:00:33;;;;;;;14.27;12.77;;;5.50;60.30;;;;;;20840;6733;119158;-74
2022/12/20 02:03:11;;;;;;;19.63;17.73;;;5.40;60.10;;;;;;20752;6730;306082;-74
2022/12/20 02:05:44;;;;;;;19.92;17.87;;;5.50;60.10;;;;;;20581;6737;309046;-74
2022/12/20 02:08:19;;;;;;;15.90;14.30;;;5.80;59.60;;;;;;20908;6736;119094;-74
2022/12/20 02:11:08;;;;;;;15.60;12.87;;;5.70;59.60;;;;;;20905;6733;121240;-74
2022/12/20 02:13:50;;;;;;;16.60;15.00;;;5.50;60.30;;;;;;20800;6700;308513;-75
2022/12/20 02:16:26;;;;;;;14.97;12.27;;;5.60;60.80;;;;;;20954;6728;118162;-75
2022/12/20 02:19:25;;;;;;;14.10;11.80;;;5.60;60.70;;;;;;20955;6722;117557;-75
2022/12/20 02:22:00;;;;;;;14.40;13.10;;;5.40;61.20;;;;;;20716;6724;337914;-75
2022/12/20 02:24:46;;;;;;;14.07;12.77;;;5.60;61.50;;;;;;20583;6810;309266;-75
2022/12/20 02:27:25;;;;;;;11.77;10.70;;;5.90;60.60;;;;;;20914;6734;116954;-75
2022/12/20 02:30:01;;;;;;;11.57;10.53;;;5.70;61.20;;;;;;20863;6758;118534;-74
2022/12/20 02:32:50;;;;;;;11.83;10.73;;;5.70;61.20;;;;;;21025;6714;117494;-75
2022/12/20 02:35:29;;;;;;;11.27;10.17;;;5.50;61.80;;;;;;20859;6714;117641;-75
2022/12/20 02:38:31;;;;;;;13.48;12.48;;;5.40;62.40;;;;;;20775;6714;338310;-75
2022/12/20 02:41:10;;;;;;;14.05;12.85;;;5.60;62.40;;;;;;20757;6714;335217;-75
2022/12/20 02:46:42;;;;;;;11.50;10.47;;;6.30;59.90;;;;;;20979;6718;118425;-75
2022/12/20 02:49:18;;;;;;;10.67;9.67;;;6.20;59.80;;;;;;20947;6723;118109;-75
2022/12/20 02:51:54;;;;;;;9.83;8.93;;;5.80;61.30;;;;;;20987;6714;118001;-75
2022/12/20 02:54:30;;;;;;;11.70;10.80;;;5.70;61.20;;;;;;20705;6714;308071;-75
2022/12/20 02:57:08;;;;;;;10.30;9.30;;;5.90;61.40;;;;;;20926;6729;119705;-75
2022/12/20 02:59:54;;;;;;;10.43;9.57;;;5.90;61.20;;;;;;20768;6714;330337;-75
2022/12/20 03:03:21;;;;;;;10.13;9.30;;;6.10;61.00;;;;;;20747;6723;305841;-75
2022/12/20 03:05:05;;;;;;;10.93;10.03;;;6.40;60.10;;;;;;20812;6770;118024;-75
2022/12/20 03:07:41;;;;;;;9.80;8.90;;;6.40;60.00;;;;;;20968;6729;117324;-75
2022/12/20 03:10:18;;;;;;;10.70;9.88;;;6.20;60.60;;;;;;20721;6729;336379;-75
2022/12/20 03:12:53;;;;;;;9.93;9.13;;;6.30;60.40;;;;;;20720;6729;277134;-75
2022/12/20 03:15:29;;;;;;;10.27;9.48;;;6.50;59.70;;;;;;20602;6744;338045;-76
2022/12/20 03:18:05;;;;;;;9.90;9.20;;;6.80;58.90;;;;;;20699;6744;318385;-76
2022/12/20 03:20:40;;;;;;;10.00;9.30;;;7.00;58.20;;;;;;20730;6730;305680;-76
2022/12/20 03:23:16;;;;;;;9.03;8.33;;;7.10;57.60;;;;;;20880;6745;121899;-73
2022/12/20 03:25:51;;;;;;;10.00;9.20;;;6.90;57.80;;;;;;20604;6730;337982;-73
2022/12/20 03:28:27;;;;;;;11.40;10.48;;;6.80;57.70;;;;;;20714;6734;306057;-73
2022/12/20 03:31:02;;;;;;;11.27;10.38;;;6.90;57.30;;;;;;20740;6722;305164;-73
2022/12/20 03:33:38;;;;;;;10.23;9.33;;;7.00;57.00;;;;;;20992;6745;67562;-73
2022/12/20 03:36:24;;;;;;;;;;;;;;;;;;;;;
2022/12/20 03:49:37;;;;;;;10.73;9.73;;;7.00;56.40;;;;;;21438;6514;68045;-75
2022/12/20 03:52:02;;;;;;;11.20;10.30;;;6.70;56.70;;;;;;20678;6794;277226;-76
2022/12/20 03:54:28;;;;;;;10.45;9.55;;;6.70;57.30;;;;;;20884;6783;118161;-75
2022/12/20 03:56:53;;;;;;;10.35;9.27;;;6.50;57.70;;;;;;20773;6832;117302;-75
2022/12/20 03:59:20;;;;;;;11.35;10.15;;;6.20;59.00;;;;;;20792;6832;118363;-76
2022/12/20 04:01:46;;;;;;;17.15;15.43;;;5.90;58.30;;;;;;20574;6832;310779;-76
2022/12/20 04:04:12;;;;;;;20.20;18.13;;;5.90;58.20;;;;;;20577;6832;306701;-75
2022/12/20 04:06:38;;;;;;;20.30;18.40;;;6.20;56.40;;;;;;20578;6832;277918;-75
2022/12/20 04:09:04;;;;;;;18.48;16.67;;;6.20;56.40;;;;;;20550;6832;310200;-76
2022/12/20 04:11:29;;;;;;;20.48;18.48;;;6.30;55.90;;;;;;20582;6832;288512;-76
2022/12/20 04:13:56;;;;;;;16.05;14.65;;;6.50;56.30;;;;;;20579;6832;336734;-71
2022/12/20 04:16:21;;;;;;;19.90;18.00;;;6.50;56.30;;;;;;20557;6832;307307;-75
2022/12/20 04:18:47;;;;;;;16.80;15.20;;;6.60;56.50;;;;;;20575;6832;281310;-74
2022/12/20 04:21:13;;;;;;;13.57;12.27;;;6.60;55.90;;;;;;20774;6832;117708;-77
2022/12/20 04:23:38;;;;;;;12.35;11.18;;;6.40;56.20;;;;;;20801;6832;118638;-75
2022/12/20 04:26:04;;;;;;;16.62;15.02;;;6.00;57.00;;;;;;20568;6832;320413;-75
2022/12/20 04:28:29;;;;;;;19.47;17.50;;;5.90;57.10;;;;;;20568;6832;337421;-74
2022/12/20 04:30:55;;;;;;;18.60;17.00;;;6.00;56.70;;;;;;20548;6832;280453;-74
2022/12/20 04:33:22;;;;;;;13.45;12.25;;;6.10;56.20;;;;;;20786;6832;117879;-75
2022/12/20 04:35:47;;;;;;;15.85;14.25;;;6.00;56.40;;;;;;20561;6832;310985;-75
2022/12/20 04:38:14;;;;;;;13.77;12.60;;;6.10;57.50;;;;;;20563;6832;307202;-75
2022/12/20 04:40:39;;;;;;;12.60;11.50;;;6.00;57.30;;;;;;20517;6832;333184;-75
2022/12/20 04:43:05;;;;;;;11.90;10.90;;;6.40;57.70;;;;;;20554;6832;307240;-75
2022/12/20 04:45:31;;;;;;;11.75;10.82;;;6.40;57.70;;;;;;20548;6832;310375;-77
2022/12/20 04:47:57;;;;;;;11.93;10.93;;;6.50;57.50;;;;;;20554;6832;307223;-77
2022/12/20 04:50:24;;;;;;;13.20;12.10;;;6.70;56.60;;;;;;20581;6832;277727;-77
2022/12/20 04:55:35;;;;;;;9.33;8.60;;;6.50;56.90;;;;;;20803;6828;120120;-78
2022/12/20 04:58:01;;;;;;;8.67;7.87;;;6.10;57.80;;;;;;20779;6828;119527;-77
2022/12/20 05:00:29;;;;;;;8.60;7.72;;;5.80;58.80;;;;;;20802;6827;118452;-80
2022/12/20 05:02:54;;;;;;;11.77;10.77;;;5.70;59.70;;;;;;20817;6828;117946;-79
2022/12/20 05:05:21;;;;;;;13.27;12.07;;;5.60;60.30;;;;;;20604;6828;309136;-77
2022/12/20 05:07:46;;;;;;;11.33;10.50;;;5.60;60.30;;;;;;20598;6828;278180;-77
2022/12/20 05:10:12;;;;;;;10.45;9.65;;;5.90;59.90;;;;;;20591;6828;336753;-77
2022/12/20 05:12:37;;;;;;;9.37;8.67;;;6.30;59.50;;;;;;20788;6828;119036;-77
2022/12/20 05:15:04;;;;;;;10.05;9.25;;;6.20;59.20;;;;;;20789;6828;117576;-78
2022/12/20 05:17:30;;;;;;;9.90;8.90;;;6.00;59.60;;;;;;20799;6828;118781;-77
2022/12/20 05:19:56;;;;;;;12.88;11.68;;;5.80;60.10;;;;;;20589;6828;297440;-77
2022/12/20 05:27:56;;;;;;;11.90;10.83;;;6.00;59.90;;;;;;20798;6828;117653;-76
2022/12/20 05:30:23;;;;;;;13.17;12.00;;;6.10;59.70;;;;;;20581;6828;277892;-78
2022/12/20 05:32:48;;;;;;;11.33;10.23;;;6.10;59.60;;;;;;20766;6830;117634;-78
2022/12/20 05:35:15;;;;;;;20.17;18.17;;;6.10;58.70;;;;;;20532;6833;311599;-77
2022/12/20 05:37:41;;;;;;;19.98;17.87;;;6.30;57.50;;;;;;20541;6838;308190;-77
2022/12/20 05:40:07;;;;;;;18.40;16.53;;;6.30;57.50;;;;;;20733;6849;118491;-77
2022/12/20 05:42:32;;;;;;;21.23;19.03;;;6.20;57.60;;;;;;20509;6849;307029;-77
2022/12/20 05:45:00;;;;;;;17.83;16.10;;;6.00;57.60;;;;;;20716;6849;117856;-78
2022/12/20 05:47:24;;;;;;;21.30;19.13;;;6.00;57.60;;;;;;20518;6849;308888;-77
2022/12/20 05:49:50;;;;;;;18.25;16.58;;;6.00;57.70;;;;;;20516;6849;311097;-76
2022/12/20 05:52:15;;;;;;;13.33;12.07;;;6.20;57.60;;;;;;20676;6870;117875;-75
2022/12/20 05:54:42;;;;;;;16.23;14.83;;;6.10;58.00;;;;;;20566;6834;335825;-79
2022/12/20 05:57:07;;;;;;;17.83;16.00;;;6.10;58.00;;;;;;20796;6832;117463;-79
2022/12/20 05:59:33;;;;;;;20.08;18.17;;;6.00;58.00;;;;;;20599;6832;278770;-78
2022/12/20 06:01:59;;;;;;;18.92;17.12;;;6.10;57.40;;;;;;20545;6837;306368;-75
2022/12/20 06:04:25;;;;;;;14.60;13.10;;;6.10;57.40;;;;;;20751;6837;117414;-76
2022/12/20 06:06:51;;;;;;;12.03;10.93;;;6.00;57.60;;;;;;20745;6844;118759;-75
2022/12/20 06:09:16;;;;;;;12.47;11.47;;;5.80;58.30;;;;;;20545;6844;337797;-76
2022/12/20 06:11:41;;;;;;;11.32;10.32;;;5.80;59.30;;;;;;20679;6863;117282;-77
2022/12/20 06:14:09;;;;;;;12.80;11.53;;;5.70;59.70;;;;;;20756;6846;118814;-79
2022/12/20 06:16:35;;;;;;;15.30;13.77;;;5.60;59.60;;;;;;20776;6849;118875;-78
2022/12/20 06:19:01;;;;;;;19.27;17.30;;;5.50;59.90;;;;;;20487;6849;308112;-74
2022/12/20 06:21:27;;;;;;;19.27;17.47;;;5.50;59.70;;;;;;20518;6849;308520;-75
2022/12/20 06:23:52;;;;;;;18.07;16.37;;;5.80;59.00;;;;;;20518;6849;280439;-74
2022/12/20 06:26:18;;;;;;;16.00;12.87;;;6.00;58.40;;;;;;20722;6849;118614;-74
2022/12/20 06:28:43;;;;;;;13.32;12.10;;;6.00;58.50;;;;;;20524;6846;279506;-74
2022/12/20 06:31:09;;;;;;;13.40;12.00;;;6.00;59.10;;;;;;20507;6846;337112;-74
2022/12/20 06:33:34;;;;;;;10.85;9.75;;;6.20;59.10;;;;;;20747;6846;117903;-74
2022/12/20 06:36:00;;;;;;;9.70;8.90;;;6.20;59.00;;;;;;20719;6846;117069;-74
2022/12/20 06:38:25;;;;;;;10.97;10.07;;;6.00;59.70;;;;;;20530;6846;307684;-74
2022/12/20 06:40:52;;;;;;;9.30;8.60;;;6.00;60.40;;;;;;20727;6846;124295;-74
2022/12/20 06:43:17;;;;;;;11.57;10.43;;;6.00;60.10;;;;;;20751;6846;120945;-74
2022/12/20 06:45:44;;;;;;;14.60;13.10;;;5.90;60.40;;;;;;20752;6846;117286;-77
2022/12/20 06:48:10;;;;;;;12.83;11.53;;;5.70;60.60;;;;;;20772;6846;117860;-75
2022/12/20 06:50:40;;;;;;;12.77;11.43;;;5.60;60.90;;;;;;20730;6846;118656;-76
2022/12/20 06:53:05;;;;;;;12.25;11.15;;;5.40;61.30;;;;;;20486;6846;308016;-74
2022/12/20 06:55:32;;;;;;;13.70;12.32;;;5.70;61.40;;;;;;20715;6846;117370;-72
2022/12/20 06:57:57;;;;;;;17.67;15.97;;;5.60;61.00;;;;;;20523;6846;279203;-73
2022/12/20 07:00:24;;;;;;;17.00;15.30;;;6.10;59.20;;;;;;20528;6846;308606;-74
2022/12/20 07:02:49;;;;;;;12.20;11.10;;;6.10;59.20;;;;;;20740;6846;118444;-73
2022/12/20 07:05:15;;;;;;;11.63;10.63;;;6.10;59.10;;;;;;20727;6846;121831;-74
2022/12/20 07:07:40;;;;;;;10.80;9.67;;;5.90;59.70;;;;;;20756;6846;122774;-73
2022/12/20 07:10:07;;;;;;;9.60;8.70;;;5.70;60.40;;;;;;20751;6846;117558;-74
2022/12/20 07:12:32;;;;;;;12.27;11.27;;;5.60;61.00;;;;;;20537;6846;278594;-74
2022/12/20 07:14:58;;;;;;;12.93;11.73;;;5.70;61.40;;;;;;20514;6846;307758;-72
2022/12/20 07:17:24;;;;;;;14.75;13.40;;;6.20;60.40;;;;;;20749;6846;120326;-72
2022/12/20 07:19:50;;;;;;;10.50;9.50;;;6.20;60.40;;;;;;20734;6846;121833;-73
2022/12/20 07:22:15;;;;;;;11.18;10.18;;;6.00;60.60;;;;;;20744;6844;118422;-73
2022/12/20 07:24:41;;;;;;;10.97;10.00;;;5.90;61.20;;;;;;20537;6845;322136;-73
2022/12/20 07:27:06;;;;;;;7.82;7.22;;;6.10;61.30;;;;;;20729;6846;118355;-73
2022/12/20 07:29:32;;;;;;;8.93;8.23;;;6.10;61.00;;;;;;20536;6846;321900;-74
2022/12/20 07:31:58;;;;;;;13.90;11.83;;;6.30;60.60;;;;;;20531;6846;320805;-75
2022/12/20 07:34:23;;;;;;;12.93;11.50;;;6.60;59.40;;;;;;20741;6846;119234;-76
2022/12/20 07:36:49;;;;;;;13.02;11.93;;;6.50;58.90;;;;;;20750;6846;117065;-73
2022/12/20 07:39:14;;;;;;;10.93;10.03;;;6.30;59.40;;;;;;20684;6861;118191;-75
2022/12/20 07:41:40;;;;;;;11.07;10.03;;;6.00;59.90;;;;;;20755;6842;117100;-80
2022/12/20 07:44:05;;;;;;;22.13;20.03;;;5.80;60.50;;;;;;20541;6842;305947;-73
2022/12/20 07:46:31;;;;;;;26.57;23.60;;;6.00;60.70;;;;;;20758;6842;117692;-73
2022/12/20 07:48:57;;;;;;;27.30;24.55;;;6.10;60.70;;;;;;20529;6842;335754;-74
2022/12/20 07:51:28;;;;;;;26.40;22.10;;;6.20;60.90;;;;;;20756;6842;117351;-73
2022/12/20 07:54:00;;;;;;;14.10;12.80;;;6.30;60.70;;;;;;20528;6842;277173;-75
2022/12/20 07:56:26;;;;;;;14.55;13.25;;;6.50;59.90;;;;;;20528;6846;307612;-74
2022/12/20 07:58:52;;;;;;;37.23;33.10;;;7.00;58.10;;;;;;20506;6846;309580;-73
2022/12/20 08:01:18;;;;;;;36.80;28.63;;;7.00;58.10;;;;;;20735;6846;118578;-73
2022/12/20 08:03:47;;;;;;;24.27;21.90;;;6.90;58.20;;;;;;20543;6846;277629;-72
2022/12/20 08:06:12;;;;;;;16.83;15.13;;;6.90;57.90;;;;;;20730;6846;117774;-74
2022/12/20 08:08:38;;;;;;;15.98;14.48;;;6.90;58.00;;;;;;20535;6846;277887;-73
2022/12/20 08:11:04;;;;;;;19.37;17.53;;;6.80;58.00;;;;;;20708;6846;117715;-72
2022/12/20 08:13:30;;;;;;;13.50;12.17;;;6.80;58.10;;;;;;20736;6846;118617;-72
2022/12/20 08:15:55;;;;;;;15.77;14.40;;;6.50;58.60;;;;;;20535;6846;310078;-73
2022/12/20 08:18:21;;;;;;;14.10;12.90;;;6.60;58.60;;;;;;20490;6861;328098;-73
2022/12/20 08:20:47;;;;;;;14.00;12.90;;;6.80;58.00;;;;;;20539;6842;277591;-72
2022/12/20 08:23:12;;;;;;;14.13;12.93;;;7.10;57.50;;;;;;20522;6842;277166;-73
2022/12/20 08:25:38;;;;;;;11.77;10.70;;;7.10;57.00;;;;;;20755;6842;118613;-72
2022/12/20 08:28:04;;;;;;;11.00;9.90;;;7.10;57.00;;;;;;20760;6842;117275;-72
2022/12/20 08:30:29;;;;;;;19.90;18.20;;;6.90;57.80;;;;;;20545;6842;276458;-72
2022/12/20 08:32:56;;;;;;;12.02;11.05;;;7.10;57.40;;;;;;20530;6842;280599;-74
2022/12/20 08:35:21;;;;;;;13.43;12.23;;;7.10;57.30;;;;;;20544;6840;306750;-72
2022/12/20 08:37:47;;;;;;;11.40;10.60;;;7.40;56.80;;;;;;20537;6845;278093;-73
2022/12/20 08:40:12;;;;;;;11.30;10.23;;;7.60;56.30;;;;;;20740;6846;117138;-73
2022/12/20 08:42:38;;;;;;;11.23;10.32;;;7.40;56.50;;;;;;20521;6846;336701;-73
2022/12/20 08:45:04;;;;;;;11.03;10.13;;;7.40;56.50;;;;;;20520;6846;337191;-76
2022/12/20 08:47:29;;;;;;;11.97;9.60;;;7.60;56.30;;;;;;20740;6846;117854;-72
2022/12/20 08:49:56;;;;;;;9.93;9.00;;;7.20;57.20;;;;;;20739;6846;118392;-73
2022/12/20 08:52:21;;;;;;;9.03;8.23;;;7.20;57.20;;;;;;20741;6846;117357;-73
2022/12/20 08:54:47;;;;;;;11.13;10.33;;;6.90;57.80;;;;;;20538;6846;277682;-73
2022/12/20 08:57:13;;;;;;;10.02;9.13;;;7.00;57.80;;;;;;20729;6846;117359;-72
2022/12/20 08:59:39;;;;;;;10.17;9.40;;;7.00;57.80;;;;;;20544;6846;309635;-71
2022/12/20 09:02:05;;;;;;;10.33;9.53;;;7.10;57.60;;;;;;20547;6846;278206;-70
2022/12/20 09:04:30;;;;;;;9.30;8.40;;;7.40;57.00;;;;;;20748;6846;117025;-70
2022/12/20 09:06:55;;;;;;;9.97;9.07;;;7.40;57.10;;;;;;20519;6846;308669;-70
2022/12/20 09:09:21;;;;;;;9.87;9.07;;;7.40;56.80;;;;;;20543;6846;305073;-70
2022/12/20 09:11:47;;;;;;;9.40;8.60;;;7.60;56.30;;;;;;20541;6846;278975;-70
2022/12/20 09:14:12;;;;;;;8.80;7.97;;;7.80;56.50;;;;;;20742;6846;118444;-70
2022/12/20 09:16:39;;;;;;;8.23;7.68;;;7.40;56.80;;;;;;20743;6846;116953;-71
2022/12/20 09:19:04;;;;;;;9.40;8.60;;;7.40;56.80;;;;;;20509;6846;278001;-71
2022/12/20 09:21:30;;;;;;;7.62;7.00;;;7.40;57.00;;;;;;20741;6846;117995;-71
2022/12/20 09:23:55;;;;;;;7.77;7.17;;;7.40;57.40;;;;;;20747;6846;117024;-71
2022/12/20 09:26:22;;;;;;;8.50;7.90;;;7.30;58.00;;;;;;20533;6846;337584;-71
2022/12/20 09:28:48;;;;;;;8.45;7.70;;;7.40;57.90;;;;;;20527;6846;278066;-71
2022/12/20 09:31:13;;;;;;;8.50;7.80;;;7.70;57.20;;;;;;20505;6846;327001;-69
2022/12/20 09:33:40;;;;;;;7.80;7.00;;;8.00;56.60;;;;;;20727;6846;116988;-69
2022/12/20 09:36:06;;;;;;;8.00;7.07;;;8.00;56.60;;;;;;20749;6846;117419;-69
2022/12/20 09:38:31;;;;;;;8.40;7.70;;;7.80;57.20;;;;;;20523;6846;278561;-71
2022/12/20 09:40:57;;;;;;;8.65;7.95;;;7.90;57.10;;;;;;20508;6846;278537;-70
2022/12/20 09:43:23;;;;;;;8.18;7.57;;;8.20;56.20;;;;;;20741;6846;117133;-70
2022/12/20 09:45:51;;;;;;;8.13;7.43;;;8.20;56.20;;;;;;20739;6844;117018;-70
2022/12/20 09:48:30;;;;;;;7.23;6.47;;;8.00;56.80;;;;;;20739;6845;116753;-70
2022/12/20 09:51:06;;;;;;;7.57;6.87;;;7.70;58.20;;;;;;20710;6846;118805;-71
2022/12/20 09:53:36;;;;;;;7.43;6.83;;;7.90;57.50;;;;;;20504;6846;278664;-69
2022/12/20 09:56:05;;;;;;;9.43;8.63;;;7.90;57.50;;;;;;20531;6846;308656;-72
2022/12/20 09:58:50;;;;;;;24.10;18.50;;;8.30;56.80;;;;;;20724;6846;118937;-70
2022/12/20 10:01:16;;;;;;;22.73;16.23;;;8.40;57.30;;;;;;20723;6846;118146;-70
2022/12/20 10:03:42;;;;;;;33.10;21.55;;;8.10;57.70;;;;;;20732;6846;121225;-70
2022/12/20 10:06:07;;;;;;;7.87;7.13;;;8.10;57.70;;;;;;20744;6846;117712;-70
2022/12/20 10:08:43;;;;;;;7.33;6.80;;;8.00;58.30;;;;;;20525;6846;280086;-70
2022/12/20 10:11:11;;;;;;;6.13;5.63;;;8.20;57.50;;;;;;20695;6846;118086;-70
2022/12/20 10:13:43;;;;;;;6.80;6.30;;;8.40;57.50;;;;;;20200;6846;338135;-70
2022/12/20 10:16:12;;;;;;;6.10;5.70;;;8.60;56.60;;;;;;20715;6846;116912;-70
2022/12/20 10:18:41;;;;;;;6.47;5.40;;;8.70;56.60;;;;;;20702;6846;116764;-69
2022/12/20 10:21:10;;;;;;;6.73;5.50;;;8.60;56.90;;;;;;20661;6861;116934;-70
2022/12/20 10:23:38;;;;;;;6.87;6.37;;;8.50;57.30;;;;;;20525;6842;276878;-70
2022/12/20 10:26:04;;;;;;;6.43;5.97;;;8.70;56.10;;;;;;20525;6842;307745;-71
2022/12/20 10:28:30;;;;;;;6.55;6.05;;;9.00;54.90;;;;;;20528;6842;305900;-71
2022/12/20 10:31:06;;;;;;;5.90;5.37;;;9.30;54.30;;;;;;20655;6842;116935;-71
2022/12/20 10:33:31;;;;;;;5.80;5.30;;;9.20;54.20;;;;;;20524;6842;305450;-71
2022/12/20 10:36:17;;;;;;;6.40;5.95;;;9.30;53.80;;;;;;20538;6842;310410;-72
2022/12/20 10:38:43;;;;;;;5.70;5.30;;;9.40;53.10;;;;;;20532;6842;308926;-72
2022/12/20 10:41:09;;;;;;;5.80;5.30;;;9.40;53.30;;;;;;20709;6842;116923;-72
2022/12/20 10:43:38;;;;;;;5.30;4.90;;;9.40;53.30;;;;;;20733;6842;116939;-72
2022/12/20 10:46:04;;;;;;;6.00;5.50;;;8.80;54.80;;;;;;20719;6842;118977;-72
2022/12/20 10:48:36;;;;;;;6.37;5.87;;;8.80;54.70;;;;;;20536;6842;310113;-72
2022/12/20 10:51:09;;;;;;;6.63;6.13;;;9.00;54.50;;;;;;20481;6846;316325;-72
2022/12/20 10:53:35;;;;;;;6.83;6.30;;;9.00;53.90;;;;;;20507;6846;307970;-72
2022/12/20 10:56:11;;;;;;;5.40;5.03;;;9.30;53.50;;;;;;20728;6846;118647;-72
2022/12/20 10:58:36;;;;;;;6.10;5.53;;;9.20;53.70;;;;;;20737;6844;117647;-72
2022/12/20 11:01:12;;;;;;;6.72;5.90;;;8.90;54.50;;;;;;20511;6845;294551;-73
2022/12/20 11:03:56;;;;;;;6.27;5.77;;;8.90;54.20;;;;;;20513;6846;280307;-73
2022/12/20 11:06:26;;;;;;;6.60;6.00;;;9.10;53.70;;;;;;20015;6846;310021;-72
2022/12/20 11:08:52;;;;;;;6.33;5.60;;;9.30;53.50;;;;;;20652;6846;117922;-74
2022/12/20 11:11:17;;;;;;;6.62;6.12;;;9.10;53.80;;;;;;20524;6846;308267;-74
2022/12/20 11:13:44;;;;;;;7.15;5.87;;;9.00;54.40;;;;;;20701;6846;117443;-73
2022/12/20 11:16:32;;;;;;;5.70;5.20;;;9.00;54.40;;;;;;20731;6846;117298;-73
2022/12/20 11:19:37;;;;;;;6.28;5.78;;;8.70;55.00;;;;;;20505;6846;307944;-71
2022/12/20 11:22:09;;;;;;;5.20;4.80;;;8.80;55.00;;;;;;20742;6846;116827;-72
2022/12/20 11:25:01;;;;;;;5.10;4.67;;;8.80;55.40;;;;;;20597;6846;117975;-71
2022/12/20 11:27:40;;;;;;;5.83;5.43;;;8.60;55.80;;;;;;20504;6846;307573;-72
2022/12/20 11:30:15;;;;;;;5.50;5.00;;;8.80;55.40;;;;;;20711;6846;117463;-73
2022/12/20 11:32:54;;;;;;;5.90;5.40;;;8.80;55.50;;;;;;20129;6846;120568;-71
2022/12/20 11:35:36;;;;;;;7.80;7.10;;;8.70;55.40;;;;;;20502;6846;310535;-72
2022/12/20 11:38:08;;;;;;;5.93;5.33;;;8.70;55.40;;;;;;20726;6846;117397;-70
2022/12/20 11:40:38;;;;;;;5.47;5.03;;;8.70;55.60;;;;;;20731;6846;116939;-71
2022/12/20 11:43:13;;;;;;;6.00;5.60;;;8.60;56.20;;;;;;20491;6846;277754;-70
2022/12/20 11:45:40;;;;;;;5.82;5.43;;;9.00;54.70;;;;;;20482;6861;310542;-71
2022/12/20 11:48:25;;;;;;;6.63;6.03;;;9.00;54.70;;;;;;20753;6842;117897;-70
2022/12/20 11:50:57;;;;;;;5.93;5.53;;;9.00;54.70;;;;;;20715;6842;117196;-71
2022/12/20 11:53:36;;;;;;;7.20;6.60;;;8.80;55.40;;;;;;20513;6842;307098;-74
2022/12/20 11:56:10;;;;;;;7.57;6.40;;;8.80;55.90;;;;;;20603;6842;117664;-70
2022/12/20 11:58:45;;;;;;;8.15;7.45;;;8.90;55.60;;;;;;20405;6847;311183;-71
2022/12/20 12:01:12;;;;;;;7.10;6.40;;;9.00;55.00;;;;;;20699;6848;129278;-71
2022/12/20 12:03:36;;;;;;;7.15;6.32;;;8.90;55.70;;;;;;20732;6848;117195;-71
2022/12/20 12:06:15;;;;;;;7.17;6.63;;;8.80;55.60;;;;;;20722;6848;116999;-71
2022/12/20 12:08:44;;;;;;;7.17;6.57;;;8.70;56.10;;;;;;20728;6846;117503;-73
2022/12/20 12:11:19;;;;;;;8.02;7.32;;;8.60;56.60;;;;;;20489;6847;339933;-72
2022/12/20 12:13:45;;;;;;;7.78;7.20;;;8.70;55.80;;;;;;20517;6847;279377;-72
2022/12/20 12:16:17;;;;;;;6.77;6.17;;;9.10;54.90;;;;;;20743;6847;120237;-70
2022/12/20 12:18:42;;;;;;;6.80;6.20;;;9.10;55.00;;;;;;20507;6847;298009;-71
2022/12/20 12:21:21;;;;;;;5.27;4.97;;;9.20;54.50;;;;;;20717;6847;118124;-71
2022/12/20 12:23:53;;;;;;;6.70;6.17;;;9.20;54.80;;;;;;20724;6847;116928;-71
2022/12/20 12:26:18;;;;;;;6.97;6.37;;;9.00;55.30;;;;;;20478;6862;337792;-71
2022/12/20 12:28:44;;;;;;;7.25;6.60;;;9.10;55.00;;;;;;20521;6862;118264;-71
2022/12/20 12:31:09;;;;;;;7.70;6.40;;;9.10;55.30;;;;;;20660;6862;117722;-71
2022/12/20 12:33:35;;;;;;;6.73;6.23;;;9.00;55.90;;;;;;20447;6862;338485;-71
2022/12/20 12:36:10;;;;;;;7.10;6.40;;;9.10;55.70;;;;;;20393;6862;337742;-71
2022/12/20 12:38:42;;;;;;;6.75;6.15;;;9.40;55.00;;;;;;20515;6843;308919;-71
2022/12/20 12:41:35;;;;;;;8.55;7.80;;;10.00;52.90;;;;;;20491;6843;310225;-71
2022/12/20 12:44:07;;;;;;;6.97;6.03;;;10.00;52.40;;;;;;20754;6843;117058;-70
2022/12/20 12:46:33;;;;;;;7.40;6.70;;;10.00;52.40;;;;;;20484;6844;277715;-70
2022/12/20 12:49:02;;;;;;;7.30;6.68;;;9.90;53.30;;;;;;20515;6844;277914;-71
2022/12/20 12:51:30;;;;;;;6.03;5.53;;;10.20;51.30;;;;;;20512;6844;309207;-71
2022/12/20 12:54:02;;;;;;;5.97;5.47;;;10.40;51.30;;;;;;20515;6844;306107;-71
2022/12/20 12:56:29;;;;;;;5.68;5.28;;;10.50;50.70;;;;;;20507;6844;306734;-71
2022/12/20 12:59:04;;;;;;;5.30;4.90;;;10.70;50.20;;;;;;20519;6844;307599;-71
2022/12/20 13:02:07;;;;;;;5.20;4.80;;;10.70;49.60;;;;;;20537;6844;308838;-71
2022/12/20 13:04:53;;;;;;;5.80;5.40;;;10.70;49.50;;;;;;20518;6844;336752;-70
2022/12/20 13:07:32;;;;;;;5.50;5.00;;;10.70;49.30;;;;;;20750;6844;117438;-71
2022/12/20 13:10:00;;;;;;;7.03;6.20;;;10.40;50.20;;;;;;20523;6844;295032;-71
2022/12/20 13:12:35;;;;;;;6.83;5.93;;;10.20;50.50;;;;;;19989;6844;119352;-72
2022/12/20 13:15:01;;;;;;;6.83;6.30;;;10.00;51.10;;;;;;20534;6844;300341;-73